Time;durP1;ratioP1;P1;durP2;ratioP2;P2;SDS_P1;SDS_P2;PMS_P1;PMS_P2;Temp;Humidity;BMP_temperature;BMP_pressure;BME280_temperature;BME280_humidity;BME280_pressure;Samples;Min_cycle;Max_cycle;Signal;HPM_P1;HPM_P2
2023/01/21 00:01:50;;;;;;;;;;;;;;;;;;6230645;28;19928;-81
2023/01/21 00:04:50;;;;;;;;;;;;;;;;;;6231367;28;20450;-84
2023/01/21 00:07:50;;;;;;;;;;;;;;;;;;6231231;28;19912;-84
2023/01/21 00:10:50;;;;;;;;;;;;;;;;;;6243240;28;19928;-83
2023/01/21 00:13:50;;;;;;;;;;;;;;;;;;6231025;28;19905;-84
2023/01/21 00:16:50;;;;;;;;;;;;;;;;;;6244348;28;19916;-84
2023/01/21 00:19:51;;;;;;;;;;;;;;;;;;6230963;28;20357;-84
2023/01/21 00:22:52;;;;;;;;;;;;;;;;;;6229034;28;20387;-84
2023/01/21 00:25:52;;;;;;;;;;;;;;;;;;6230201;28;19958;-84
2023/01/21 00:28:52;;;;;;;;;;;;;;;;;;6230519;28;19908;-84
2023/01/21 00:31:53;;;;;;;;;;;;;;;;;;6230123;28;19912;-84
2023/01/21 00:34:53;;;;;;;;;;;;;;;;;;6223268;28;19913;-85
2023/01/21 00:37:53;;;;;;;;;;;;;;;;;;6229631;28;19913;-85
2023/01/21 00:40:53;;;;;;;;;;;;;;;;;;6230037;28;20352;-84
2023/01/21 00:43:53;;;;;;;;;;;;;;;;;;6214525;28;19909;-84
2023/01/21 00:46:53;;;;;;;;;;;;;;;;;;6229846;28;20292;-84
2023/01/21 00:49:53;;;;;;;;;;;;;;;;;;6247093;28;19912;-84
2023/01/21 00:52:53;;;;;;;;;;;;;;;;;;6230808;28;19944;-84
2023/01/21 00:55:54;;;;;;;;;;;;;;;;;;6243570;28;19913;-84
2023/01/21 00:58:54;;;;;;;;;;;;;;;;;;6246517;28;19908;-85
2023/01/21 01:01:54;;;;;;;;;;;;;;;;;;6230761;28;19913;-85
2023/01/21 01:04:54;;;;;;;;;;;;;;;;;;6231197;28;19909;-85
2023/01/21 01:07:54;;;;;;;;;;;;;;;;;;6231719;28;19909;-85
2023/01/21 01:10:54;;;;;;;;;;;;;;;;;;6230814;28;19996;-86
2023/01/21 01:13:54;;;;;;;;;;;;;;;;;;6229863;28;19909;-85
2023/01/21 01:16:54;;;;;;;;;;;;;;;;;;6229504;28;20002;-85
2023/01/21 01:19:54;;;;;;;;;;;;;;;;;;6229663;28;19909;-85
2023/01/21 01:22:55;;;;;;;;;;;;;;;;;;6247972;28;20016;-86
2023/01/21 01:25:55;;;;;;;;;;;;;;;;;;6229403;28;19909;-85
2023/01/21 01:28:55;;;;;;;;;;;;;;;;;;6228407;28;19916;-86
2023/01/21 01:31:55;;;;;;;;;;;;;;;;;;6247867;28;19916;-86
2023/01/21 01:34:55;;;;;;;;;;;;;;;;;;6247913;28;20284;-86
2023/01/21 01:37:55;;;;;;;;;;;;;;;;;;6230277;28;19909;-86
2023/01/21 01:40:55;;;;;;;;;;;;;;;;;;6230033;28;19909;-86
2023/01/21 01:43:56;;;;;;;;;;;;;;;;;;6227679;28;19916;-86
2023/01/21 01:46:56;;;;;;;;;;;;;;;;;;6230374;28;20258;-86
2023/01/21 01:49:56;;;;;;;;;;;;;;;;;;6229323;28;19909;-86
2023/01/21 01:52:56;;;;;;;;;;;;;;;;;;6232011;28;19947;-86
2023/01/21 01:55:56;;;;;;;;;;;;;;;;;;6236908;28;19913;-86
2023/01/21 01:58:56;;;;;;;;;;;;;;;;;;6231348;28;19912;-86
2023/01/21 02:01:56;;;;;;;;;;;;;;;;;;6234386;28;19962;-87
2023/01/21 02:04:57;;;;;;;;;;;;;;;;;;6234568;28;19958;-87
2023/01/21 02:07:57;;;;;;;;;;;;;;;;;;6249442;28;19975;-87
2023/01/21 02:10:57;;;;;;;;;;;;;;;;;;6225799;28;19917;-87
2023/01/21 02:13:57;;;;;;;;;;;;;;;;;;6226396;28;19909;-87
2023/01/21 02:16:57;;;;;;;;;;;;;;;;;;6226189;28;19917;-87
2023/01/21 02:19:57;;;;;;;;;;;;;;;;;;6221916;28;19912;-87
2023/01/21 02:22:57;;;;;;;;;;;;;;;;;;6222608;28;19909;-87
2023/01/21 02:25:57;;;;;;;;;;;;;;;;;;6223781;28;20365;-87
2023/01/21 02:28:57;;;;;;;;;;;;;;;;;;6231661;28;19928;-87
2023/01/21 02:31:57;;;;;;;;;;;;;;;;;;6226008;28;19912;-87
2023/01/21 02:34:57;;;;;;;;;;;;;;;;;;6225298;28;19959;-87
2023/01/21 02:37:58;;;;;;;;;;;;;;;;;;6224755;28;19910;-87
2023/01/21 02:40:58;;;;;;;;;;;;;;;;;;6225810;28;19912;-87
2023/01/21 02:43:58;;;;;;;;;;;;;;;;;;6225253;28;19909;-87
2023/01/21 02:46:58;;;;;;;;;;;;;;;;;;6225336;28;20289;-87
2023/01/21 02:49:58;;;;;;;;;;;;;;;;;;6220261;28;19906;-87
2023/01/21 02:52:58;;;;;;;;;;;;;;;;;;6222745;28;19905;-87
2023/01/21 02:55:58;;;;;;;;;;;;;;;;;;6223454;28;19915;-87
2023/01/21 02:58:58;;;;;;;;;;;;;;;;;;6224514;28;19905;-87
2023/01/21 03:01:58;;;;;;;;;;;;;;;;;;6221857;28;20280;-88
2023/01/21 03:04:59;;;;;;;;;;;;;;;;;;6220509;28;19906;-87
2023/01/21 03:07:59;;;;;;;;;;;;;;;;;;6223040;28;19905;-87
2023/01/21 03:10:59;;;;;;;;;;;;;;;;;;6224044;28;19921;-87
2023/01/21 03:17:18;;;;;;;;;;;;;;;;;;6224116;28;19917;-87
2023/01/21 03:20:18;;;;;;;;;;;;;;;;;;6222967;28;19952;-87
2023/01/21 03:23:18;;;;;;;;;;;;;;;;;;6233328;28;19964;-87
2023/01/21 03:26:18;;;;;;;;;;;;;;;;;;6225958;28;20036;-87
2023/01/21 03:29:18;;;;;;;;;;;;;;;;;;6214057;28;19905;-87
2023/01/21 03:32:19;;;;;;;;;;;;;;;;;;6225051;28;19909;-87
2023/01/21 03:35:19;;;;;;;;;;;;;;;;;;6224465;28;19910;-87
2023/01/21 03:38:19;;;;;;;;;;;;;;;;;;6221499;28;19956;-87
2023/01/21 03:41:19;;;;;;;;;;;;;;;;;;6223985;28;19992;-87
2023/01/21 03:44:19;;;;;;;;;;;;;;;;;;6219776;28;19905;-87
2023/01/21 03:47:19;;;;;;;;;;;;;;;;;;6224041;28;20250;-87
2023/01/21 03:50:19;;;;;;;;;;;;;;;;;;6223561;28;20379;-87
2023/01/21 03:53:19;;;;;;;;;;;;;;;;;;6217298;28;20053;-87
2023/01/21 03:56:19;;;;;;;;;;;;;;;;;;6217015;28;19920;-87
2023/01/21 03:59:20;;;;;;;;;;;;;;;;;;6224025;28;19909;-87
2023/01/21 04:02:20;;;;;;;;;;;;;;;;;;6223234;28;19913;-87
2023/01/21 04:05:20;;;;;;;;;;;;;;;;;;6225965;28;19916;-87
2023/01/21 04:08:20;;;;;;;;;;;;;;;;;;6220805;28;20396;-87
2023/01/21 04:11:20;;;;;;;;;;;;;;;;;;6224638;28;20369;-87
2023/01/21 04:14:20;;;;;;;;;;;;;;;;;;6224900;28;19996;-87
2023/01/21 04:17:20;;;;;;;;;;;;;;;;;;6224526;28;19964;-87
2023/01/21 04:20:20;;;;;;;;;;;;;;;;;;6222167;28;19952;-87
2023/01/21 04:23:20;;;;;;;;;;;;;;;;;;6216706;28;19916;-87
2023/01/21 04:26:20;;;;;;;;;;;;;;;;;;6228149;28;19909;-87
2023/01/21 04:29:21;;;;;;;;;;;;;;;;;;6225273;28;19916;-87
2023/01/21 04:32:21;;;;;;;;;;;;;;;;;;6223879;28;19913;-87
2023/01/21 04:35:21;;;;;;;;;;;;;;;;;;6218442;28;19919;-87
2023/01/21 04:38:21;;;;;;;;;;;;;;;;;;6233828;28;19913;-87
2023/01/21 04:41:21;;;;;;;;;;;;;;;;;;6223634;28;19913;-87
2023/01/21 04:44:21;;;;;;;;;;;;;;;;;;6225378;28;19913;-87
2023/01/21 04:47:21;;;;;;;;;;;;;;;;;;6224324;28;20007;-87
2023/01/21 04:50:21;;;;;;;;;;;;;;;;;;6223764;28;19909;-86
2023/01/21 04:53:22;;;;;;;;;;;;;;;;;;6224548;28;19905;-84
2023/01/21 04:56:22;;;;;;;;;;;;;;;;;;6220042;28;19916;-84
2023/01/21 04:59:22;;;;;;;;;;;;;;;;;;6220956;28;20265;-85
2023/01/21 05:02:22;;;;;;;;;;;;;;;;;;6217590;28;19941;-85
2023/01/21 05:05:22;;;;;;;;;;;;;;;;;;6228413;28;20361;-84
2023/01/21 05:08:22;;;;;;;;;;;;;;;;;;6225011;28;19935;-85
2023/01/21 05:11:22;;;;;;;;;;;;;;;;;;6235831;28;19925;-85
2023/01/21 05:14:22;;;;;;;;;;;;;;;;;;6227919;28;19996;-85
2023/01/21 05:17:22;;;;;;;;;;;;;;;;;;6220770;28;19976;-85
2023/01/21 05:20:23;;;;;;;;;;;;;;;;;;6230393;28;19909;-85
2023/01/21 05:23:23;;;;;;;;;;;;;;;;;;6231147;28;19909;-85
2023/01/21 05:26:23;;;;;;;;;;;;;;;;;;6230952;28;19944;-85
2023/01/21 05:29:23;;;;;;;;;;;;;;;;;;6231076;28;19909;-85
2023/01/21 05:32:23;;;;;;;;;;;;;;;;;;6248230;28;19990;-85
2023/01/21 05:35:23;;;;;;;;;;;;;;;;;;6247961;28;19978;-86
2023/01/21 05:38:23;;;;;;;;;;;;;;;;;;6231996;28;19912;-85
2023/01/21 05:41:23;;;;;;;;;;;;;;;;;;6235676;28;19909;-85
2023/01/21 05:44:23;;;;;;;;;;;;;;;;;;6235552;28;19905;-86
2023/01/21 05:47:24;;;;;;;;;;;;;;;;;;6239506;28;19905;-85
2023/01/21 05:50:24;;;;;;;;;;;;;;;;;;6235251;28;20312;-86
2023/01/21 05:53:24;;;;;;;;;;;;;;;;;;6232961;28;20276;-85
2023/01/21 05:56:24;;;;;;;;;;;;;;;;;;6252905;28;20365;-85
2023/01/21 05:59:24;;;;;;;;;;;;;;;;;;6237639;28;20323;-85
2023/01/21 06:02:24;;;;;;;;;;;;;;;;;;6235899;28;20365;-85
2023/01/21 06:05:24;;;;;;;;;;;;;;;;;;6234760;28;19916;-85
2023/01/21 06:08:24;;;;;;;;;;;;;;;;;;6233477;28;19909;-85
2023/01/21 06:11:24;;;;;;;;;;;;;;;;;;6226932;28;19926;-85
2023/01/21 06:14:25;;;;;;;;;;;;;;;;;;6218861;28;19913;-85
2023/01/21 06:17:28;;;;;;;;;;;;;;;;;;6226823;28;19917;-84
2023/01/21 06:20:29;;;;;;;;;;;;;;;;;;6228135;28;19924;-85
2023/01/21 06:23:29;;;;;;;;;;;;;;;;;;6231226;28;19905;-84
2023/01/21 06:26:29;;;;;;;;;;;;;;;;;;6221040;28;19912;-85
2023/01/21 06:29:29;;;;;;;;;;;;;;;;;;6222065;28;20334;-84
2023/01/21 06:32:29;;;;;;;;;;;;;;;;;;6232858;28;19920;-85
2023/01/21 06:35:30;;;;;;;;;;;;;;;;;;6224582;28;20281;-84
2023/01/21 06:38:30;;;;;;;;;;;;;;;;;;6219537;28;20424;-85
2023/01/21 06:41:30;;;;;;;;;;;;;;;;;;6224576;28;19913;-84
2023/01/21 06:44:30;;;;;;;;;;;;;;;;;;6226160;28;19905;-84
2023/01/21 06:47:30;;;;;;;;;;;;;;;;;;6222989;28;20247;-84
2023/01/21 06:50:31;;;;;;;;;;;;;;;;;;6229527;28;19996;-84
2023/01/21 06:53:31;;;;;;;;;;;;;;;;;;6222600;28;19912;-84
2023/01/21 06:56:31;;;;;;;;;;;;;;;;;;6216709;28;19910;-84
2023/01/21 06:59:31;;;;;;;;;;;;;;;;;;6215980;28;19905;-84
2023/01/21 07:02:31;;;;;;;;;;;;;;;;;;6225075;28;19916;-84
2023/01/21 07:05:31;;;;;;;;;;;;;;;;;;6224855;28;19910;-84
2023/01/21 07:08:31;;;;;;;;;;;;;;;;;;6223571;28;19905;-84
2023/01/21 07:11:31;;;;;;;;;;;;;;;;;;6223898;28;20027;-84
2023/01/21 07:14:31;;;;;;;;;;;;;;;;;;6225089;28;19906;-84
2023/01/21 07:17:32;;;;;;;;;;;;;;;;;;6226648;28;19916;-84
2023/01/21 07:20:32;;;;;;;;;;;;;;;;;;6226208;28;19913;-84
2023/01/21 07:23:32;;;;;;;;;;;;;;;;;;6224667;28;19992;-84
2023/01/21 07:26:36;;;;;;;;;;;;;;;;;;6226492;28;19914;-84
2023/01/21 07:29:36;;;;;;;;;;;;;;;;;;6223666;28;19906;-84
2023/01/21 07:32:36;;;;;;;;;;;;;;;;;;6224838;28;19910;-84
2023/01/21 07:35:37;;;;;;;;;;;;;;;;;;6223589;28;19913;-83
2023/01/21 07:38:37;;;;;;;;;;;;;;;;;;6222938;28;19959;-83
2023/01/21 07:41:37;;;;;;;;;;;;;;;;;;6221818;28;19992;-83
2023/01/21 07:44:37;;;;;;;;;;;;;;;;;;6224231;28;20278;-84
2023/01/21 07:47:37;;;;;;;;;;;;;;;;;;6239255;28;19911;-84
2023/01/21 07:50:37;;;;;;;;;;;;;;;;;;6222121;28;19912;-83
2023/01/21 07:53:37;;;;;;;;;;;;;;;;;;6228287;28;19920;-83
2023/01/21 07:56:37;;;;;;;;;;;;;;;;;;6219429;28;19920;-83
2023/01/21 07:59:37;;;;;;;;;;;;;;;;;;6223785;28;19909;-84
2023/01/21 08:02:38;;;;;;;;;;;;;;;;;;6222682;28;19909;-84
2023/01/21 08:05:38;;;;;;;;;;;;;;;;;;6224324;28;20364;-84
2023/01/21 08:08:38;;;;;;;;;;;;;;;;;;6221862;28;20258;-84
2023/01/21 08:11:38;;;;;;;;;;;;;;;;;;6221589;28;19972;-84
2023/01/21 08:14:38;;;;;;;;;;;;;;;;;;6222968;28;19968;-84
2023/01/21 08:17:38;;;;;;;;;;;;;;;;;;6239943;28;19952;-84
2023/01/21 08:20:38;;;;;;;;;;;;;;;;;;6223303;28;19909;-84
2023/01/21 08:23:38;;;;;;;;;;;;;;;;;;6221795;28;19955;-84
2023/01/21 08:26:39;;;;;;;;;;;;;;;;;;6222281;28;19905;-84
2023/01/21 08:29:39;;;;;;;;;;;;;;;;;;6224764;28;20278;-84
2023/01/21 08:32:39;;;;;;;;;;;;;;;;;;6223689;28;19961;-84
2023/01/21 08:35:39;;;;;;;;;;;;;;;;;;6224866;28;19909;-84
2023/01/21 08:38:39;;;;;;;;;;;;;;;;;;6223287;28;20429;-84
2023/01/21 08:41:39;;;;;;;;;;;;;;;;;;6225459;28;19912;-84
2023/01/21 08:44:39;;;;;;;;;;;;;;;;;;6234967;28;20407;-85
2023/01/21 08:47:40;;;;;;;;;;;;;;;;;;6223732;28;19912;-84
2023/01/21 08:50:40;;;;;;;;;;;;;;;;;;6224186;28;20024;-84
2023/01/21 08:53:40;;;;;;;;;;;;;;;;;;6224553;28;19940;-83
2023/01/21 08:56:40;;;;;;;;;;;;;;;;;;6221715;28;19909;-83
2023/01/21 08:59:40;;;;;;;;;;;;;;;;;;6224939;28;20021;-84
2023/01/21 09:02:40;;;;;;;;;;;;;;;;;;6224130;28;19964;-84
2023/01/21 09:05:40;;;;;;;;;;;;;;;;;;6221482;28;20004;-85
2023/01/21 09:08:40;;;;;;;;;;;;;;;;;;6223193;28;20011;-85
2023/01/21 09:11:41;;;;;;;;;;;;;;;;;;6227217;28;19921;-83
2023/01/21 09:14:41;;;;;;;;;;;;;;;;;;6225312;28;19959;-84
2023/01/21 09:17:41;;;;;;;;;;;;;;;;;;6225342;28;21383;-84
2023/01/21 09:20:41;;;;;;;;;;;;;;;;;;6227853;28;20350;-83
2023/01/21 09:23:41;;;;;;;;;;;;;;;;;;6227236;28;19913;-84
2023/01/21 09:26:42;;;;;;;;;;;;;;;;;;6227511;28;19909;-83
2023/01/21 09:29:42;;;;;;;;;;;;;;;;;;6226666;28;19931;-83
2023/01/21 09:32:43;;;;;;;;;;;;;;;;;;6223947;28;19909;-84
2023/01/21 09:35:43;;;;;;;;;;;;;;;;;;6237800;28;19913;-84
2023/01/21 09:38:43;;;;;;;;;;;;;;;;;;6227102;28;19960;-85
2023/01/21 09:41:44;;;;;;;;;;;;;;;;;;6231089;28;19909;-85
2023/01/21 09:44:45;;;;;;;;;;;;;;;;;;6228620;28;20063;-85
2023/01/21 09:47:45;;;;;;;;;;;;;;;;;;6228008;28;19909;-85
2023/01/21 09:50:45;;;;;;;;;;;;;;;;;;6226320;28;20035;-85
2023/01/21 09:53:45;;;;;;;;;;;;;;;;;;6225139;28;20259;-85
2023/01/21 09:56:45;;;;;;;;;;;;;;;;;;6225930;28;20388;-85
2023/01/21 09:59:45;;;;;;;;;;;;;;;;;;6224356;28;19953;-84
2023/01/21 10:02:45;;;;;;;;;;;;;;;;;;6229312;28;19905;-83
2023/01/21 10:05:45;;;;;;;;;;;;;;;;;;6225744;28;19905;-84
2023/01/21 10:08:45;;;;;;;;;;;;;;;;;;6227552;28;19920;-83
2023/01/21 10:11:45;;;;;;;;;;;;;;;;;;6226760;28;19921;-83
2023/01/21 10:14:46;;;;;;;;;;;;;;;;;;6226307;28;19916;-82
2023/01/21 10:17:46;;;;;;;;;;;;;;;;;;6225215;28;19980;-82
2023/01/21 10:20:46;;;;;;;;;;;;;;;;;;6226421;28;19912;-82
2023/01/21 10:23:46;;;;;;;;;;;;;;;;;;6225462;28;20321;-82
2023/01/21 10:26:46;;;;;;;;;;;;;;;;;;6225253;28;20293;-82
2023/01/21 10:29:46;;;;;;;;;;;;;;;;;;6224039;28;19932;-82
2023/01/21 10:32:46;;;;;;;;;;;;;;;;;;6225443;28;19912;-81
2023/01/21 10:35:47;;;;;;;;;;;;;;;;;;6223599;28;20330;-81
2023/01/21 10:38:47;;;;;;;;;;;;;;;;;;6214791;28;20357;-81
2023/01/21 10:41:47;;;;;;;;;;;;;;;;;;6225216;28;19909;-81
2023/01/21 10:44:47;;;;;;;;;;;;;;;;;;6223193;28;19905;-82
2023/01/21 10:47:47;;;;;;;;;;;;;;;;;;6226508;28;19912;-81
2023/01/21 10:50:47;;;;;;;;;;;;;;;;;;6221300;28;19906;-80
2023/01/21 10:53:47;;;;;;;;;;;;;;;;;;6224952;28;19945;-81
2023/01/21 10:56:47;;;;;;;;;;;;;;;;;;6224286;28;19996;-81
2023/01/21 10:59:48;;;;;;;;;;;;;;;;;;6223963;28;20084;-81
2023/01/21 11:02:49;;;;;;;;;;;;;;;;;;6225672;28;19905;-81
2023/01/21 11:05:49;;;;;;;;;;;;;;;;;;6223675;28;19909;-81
2023/01/21 11:08:49;;;;;;;;;;;;;;;;;;6224429;28;20238;-81
2023/01/21 11:11:49;;;;;;;;;;;;;;;;;;6249156;28;19947;-80
2023/01/21 11:14:49;;;;;;;;;;;;;;;;;;6235190;28;19908;-80
2023/01/21 11:17:50;;;;;;;;;;;;;;;;;;6230446;28;19959;-80
2023/01/21 11:20:50;;;;;;;;;;;;;;;;;;6241458;28;19959;-80
2023/01/21 11:23:50;;;;;;;;;;;;;;;;;;6247355;28;19948;-80
2023/01/21 11:26:51;;;;;;;;;;;;;;;;;;6230108;28;20285;-80
2023/01/21 11:29:51;;;;;;;;;;;;;;;;;;6230040;28;20373;-81
2023/01/21 11:32:51;;;;;;;;;;;;;;;;;;6230767;28;19909;-80
2023/01/21 11:35:51;;;;;;;;;;;;;;;;;;6230502;28;19908;-79
2023/01/21 11:38:51;;;;;;;;;;;;;;;;;;6226473;28;19988;-79
2023/01/21 11:41:51;;;;;;;;;;;;;;;;;;6230643;28;19909;-77
2023/01/21 11:44:51;;;;;;;;;;;;;;;;;;6230341;28;19905;-77
2023/01/21 11:47:52;;;;;;;;;;;;;;;;;;6247548;28;20387;-77
2023/01/21 11:50:52;;;;;;;;;;;;;;;;;;6247610;28;19915;-78
2023/01/21 11:53:52;;;;;;;;;;;;;;;;;;6245697;28;19905;-78
2023/01/21 11:56:52;;;;;;;;;;;;;;;;;;6230544;28;20007;-78
2023/01/21 11:59:53;;;;;;;;;;;;;;;;;;6247195;28;20285;-78
2023/01/21 12:02:53;;;;;;;;;;;;;;;;;;6247642;28;20328;-78
2023/01/21 12:05:53;;;;;;;;;;;;;;;;;;6230016;28;19984;-78
2023/01/21 12:08:53;;;;;;;;;;;;;;;;;;6225547;28;20329;-78
2023/01/21 12:11:53;;;;;;;;;;;;;;;;;;6225945;28;19928;-78
2023/01/21 12:14:53;;;;;;;;;;;;;;;;;;6228506;28;19909;-79
2023/01/21 12:17:53;;;;;;;;;;;;;;;;;;6231347;28;19909;-79
2023/01/21 12:20:54;;;;;;;;;;;;;;;;;;6232442;28;19917;-79
2023/01/21 12:23:54;;;;;;;;;;;;;;;;;;6232072;28;20332;-80
2023/01/21 12:26:54;;;;;;;;;;;;;;;;;;6227538;28;19905;-80
2023/01/21 12:29:54;;;;;;;;;;;;;;;;;;6239811;28;19952;-80
2023/01/21 12:32:55;;;;;;;;;;;;;;;;;;6240314;28;20433;-80
2023/01/21 12:35:55;;;;;;;;;;;;;;;;;;6222153;28;19920;-80
2023/01/21 12:38:55;;;;;;;;;;;;;;;;;;6243594;28;19909;-80
2023/01/21 12:41:55;;;;;;;;;;;;;;;;;;6227933;28;19963;-80
2023/01/21 12:44:56;;;;;;;;;;;;;;;;;;6230521;28;19908;-80
2023/01/21 12:47:56;;;;;;;;;;;;;;;;;;6246894;28;20284;-80
2023/01/21 12:50:56;;;;;;;;;;;;;;;;;;6244895;28;19893;-80
2023/01/21 12:53:56;;;;;;;;;;;;;;;;;;6225960;28;19960;-80
2023/01/21 12:56:56;;;;;;;;;;;;;;;;;;6247868;28;19913;-80
2023/01/21 12:59:56;;;;;;;;;;;;;;;;;;6228178;28;19909;-82
2023/01/21 13:02:56;;;;;;;;;;;;;;;;;;6229242;28;19905;-82
2023/01/21 13:05:56;;;;;;;;;;;;;;;;;;6227989;28;20340;-81
2023/01/21 13:08:56;;;;;;;;;;;;;;;;;;6212564;28;19916;-81
2023/01/21 13:11:57;;;;;;;;;;;;;;;;;;6223815;28;19928;-81
2023/01/21 13:14:57;;;;;;;;;;;;;;;;;;6242899;28;19915;-80
2023/01/21 13:17:57;;;;;;;;;;;;;;;;;;6242497;28;19909;-77
2023/01/21 13:20:57;;;;;;;;;;;;;;;;;;6245515;28;19968;-77
2023/01/21 13:23:58;;;;;;;;;;;;;;;;;;6228051;28;20083;-77
2023/01/21 13:26:58;;;;;;;;;;;;;;;;;;6243674;28;19912;-77
2023/01/21 13:29:58;;;;;;;;;;;;;;;;;;6228131;28;19909;-77
2023/01/21 13:32:58;;;;;;;;;;;;;;;;;;6240115;28;20372;-77
2023/01/21 13:35:58;;;;;;;;;;;;;;;;;;6227295;28;19919;-77
2023/01/21 13:38:59;;;;;;;;;;;;;;;;;;6227994;28;20325;-77
2023/01/21 13:41:59;;;;;;;;;;;;;;;;;;6227843;28;20395;-77
2023/01/21 13:44:59;;;;;;;;;;;;;;;;;;6227398;28;19982;-77
2023/01/21 13:47:59;;;;;;;;;;;;;;;;;;6227898;28;19916;-79
2023/01/21 13:50:59;;;;;;;;;;;;;;;;;;6225195;28;19995;-81
2023/01/21 13:53:59;;;;;;;;;;;;;;;;;;6241061;28;19913;-80
2023/01/21 13:56:59;;;;;;;;;;;;;;;;;;6245395;28;19909;-80
2023/01/21 13:59:59;;;;;;;;;;;;;;;;;;6247123;28;19927;-81
2023/01/21 14:03:00;;;;;;;;;;;;;;;;;;6231586;28;19909;-81
2023/01/21 14:06:00;;;;;;;;;;;;;;;;;;6232520;28;19967;-81
2023/01/21 14:09:00;;;;;;;;;;;;;;;;;;6250827;28;19905;-82
2023/01/21 14:12:00;;;;;;;;;;;;;;;;;;6231229;28;20276;-82
2023/01/21 14:15:00;;;;;;;;;;;;;;;;;;6231280;28;19905;-82
2023/01/21 14:18:03;;;;;;;;;;;;;;;;;;6230485;28;20407;-81
2023/01/21 14:21:03;;;;;;;;;;;;;;;;;;6230765;28;19913;-81
2023/01/21 14:24:03;;;;;;;;;;;;;;;;;;6233158;28;19909;-81
2023/01/21 14:27:03;;;;;;;;;;;;;;;;;;6247965;28;19956;-81
2023/01/21 14:30:03;;;;;;;;;;;;;;;;;;6230018;28;19909;-78
2023/01/21 14:33:03;;;;;;;;;;;;;;;;;;6230876;28;19909;-78
2023/01/21 14:36:03;;;;;;;;;;;;;;;;;;6248992;28;19948;-78
2023/01/21 14:39:03;;;;;;;;;;;;;;;;;;6229475;28;19912;-78
2023/01/21 14:42:03;;;;;;;;;;;;;;;;;;6229232;28;20356;-78
2023/01/21 14:45:04;;;;;;;;;;;;;;;;;;6248683;28;19952;-78
2023/01/21 14:48:04;;;;;;;;;;;;;;;;;;6230492;28;19905;-78
2023/01/21 14:51:04;;;;;;;;;;;;;;;;;;6235661;28;19912;-79
2023/01/21 14:54:04;;;;;;;;;;;;;;;;;;6248331;28;19905;-79
2023/01/21 14:57:04;;;;;;;;;;;;;;;;;;6230209;28;19990;-79
2023/01/21 15:00:04;;;;;;;;;;;;;;;;;;6227467;28;19905;-80
2023/01/21 15:03:04;;;;;;;;;;;;;;;;;;6247435;28;19905;-80
2023/01/21 15:06:04;;;;;;;;;;;;;;;;;;6241390;28;19951;-80
2023/01/21 15:09:04;;;;;;;;;;;;;;;;;;6190625;28;1100562;-80
2023/01/21 15:12:05;;;;;;;;;;;;;;;;;;6231284;28;20396;-80
2023/01/21 15:15:05;;;;;;;;;;;;;;;;;;6229049;28;20316;-80
2023/01/21 15:18:05;;;;;;;;;;;;;;;;;;6229702;28;19954;-80
2023/01/21 15:21:05;;;;;;;;;;;;;;;;;;6248224;28;19915;-80
2023/01/21 15:24:05;;;;;;;;;;;;;;;;;;6230827;28;20396;-77
2023/01/21 15:27:05;;;;;;;;;;;;;;;;;;6241733;28;19944;-77
2023/01/21 15:30:05;;;;;;;;;;;;;;;;;;6227326;28;19912;-77
2023/01/21 15:33:05;;;;;;;;;;;;;;;;;;6245416;28;19905;-77
2023/01/21 15:36:05;;;;;;;;;;;;;;;;;;6247641;28;19909;-77
2023/01/21 15:39:06;;;;;;;;;;;;;;;;;;6251140;28;19933;-77
2023/01/21 15:42:06;;;;;;;;;;;;;;;;;;6231070;28;20020;-77
2023/01/21 15:45:06;;;;;;;;;;;;;;;;;;6247955;28;19911;-77
2023/01/21 15:48:06;;;;;;;;;;;;;;;;;;6246794;28;19984;-78
2023/01/21 15:51:06;;;;;;;;;;;;;;;;;;6225810;28;19905;-78
2023/01/21 15:54:06;;;;;;;;;;;;;;;;;;6239369;28;19905;-78
2023/01/21 15:57:06;;;;;;;;;;;;;;;;;;6229225;28;19916;-78
2023/01/21 16:00:07;;;;;;;;;;;;;;;;;;6230211;28;19905;-78
2023/01/21 16:03:07;;;;;;;;;;;;;;;;;;6247035;28;19916;-78
2023/01/21 16:06:07;;;;;;;;;;;;;;;;;;6228488;28;20316;-78
2023/01/21 16:09:07;;;;;;;;;;;;;;;;;;6239450;28;19999;-78
2023/01/21 16:12:07;;;;;;;;;;;;;;;;;;6225623;28;19913;-78
2023/01/21 16:15:07;;;;;;;;;;;;;;;;;;6244025;28;20098;-78
2023/01/21 16:18:07;;;;;;;;;;;;;;;;;;6227080;28;19913;-78
2023/01/21 16:21:07;;;;;;;;;;;;;;;;;;6247399;28;19909;-78
2023/01/21 16:24:07;;;;;;;;;;;;;;;;;;6248210;28;20384;-78
2023/01/21 16:27:07;;;;;;;;;;;;;;;;;;6243673;28;19915;-78
2023/01/21 16:30:08;;;;;;;;;;;;;;;;;;6228806;28;19975;-77
2023/01/21 16:33:08;;;;;;;;;;;;;;;;;;6224513;28;20427;-77
2023/01/21 16:36:12;;;;;;;;;;;;;;;;;;6240313;28;19943;-78
2023/01/21 16:39:12;;;;;;;;;;;;;;;;;;6246712;28;20004;-77
2023/01/21 16:42:13;;;;;;;;;;;;;;;;;;6229626;28;19908;-78
2023/01/21 16:45:13;;;;;;;;;;;;;;;;;;6228196;28;20285;-78
2023/01/21 16:48:13;;;;;;;;;;;;;;;;;;6246185;28;19909;-78
2023/01/21 16:51:13;;;;;;;;;;;;;;;;;;6227743;28;19992;-79
2023/01/21 16:54:13;;;;;;;;;;;;;;;;;;6216151;28;19913;-78
2023/01/21 16:57:13;;;;;;;;;;;;;;;;;;6231204;28;19917;-78
2023/01/21 17:00:13;;;;;;;;;;;;;;;;;;6225423;28;19966;-78
2023/01/21 17:03:15;;;;;;;;;;;;;;;;;;6226478;28;19914;-78
2023/01/21 17:06:15;;;;;;;;;;;;;;;;;;6216659;28;20389;-78
2023/01/21 17:09:15;;;;;;;;;;;;;;;;;;6227106;28;20254;-78
2023/01/21 17:12:15;;;;;;;;;;;;;;;;;;6236016;28;20424;-78
2023/01/21 17:15:15;;;;;;;;;;;;;;;;;;6246638;28;19912;-78
2023/01/21 17:18:15;;;;;;;;;;;;;;;;;;6243539;28;19916;-78
2023/01/21 17:21:15;;;;;;;;;;;;;;;;;;6231374;28;20008;-79
2023/01/21 17:24:15;;;;;;;;;;;;;;;;;;6220364;28;19916;-79
2023/01/21 17:27:15;;;;;;;;;;;;;;;;;;6226642;28;20015;-79
2023/01/21 17:30:15;;;;;;;;;;;;;;;;;;6230421;28;19912;-78
2023/01/21 17:33:16;;;;;;;;;;;;;;;;;;6222258;28;20348;-79
2023/01/21 17:36:17;;;;;;;;;;;;;;;;;;6232256;28;19915;-78
2023/01/21 17:39:20;;;;;;;;;;;;;;;;;;6224770;28;19916;-78
2023/01/21 17:42:20;;;;;;;;;;;;;;;;;;6234111;28;19914;-78
2023/01/21 17:45:20;;;;;;;;;;;;;;;;;;6230793;28;19921;-78
2023/01/21 17:48:20;;;;;;;;;;;;;;;;;;6241613;28;19931;-79
2023/01/21 17:51:20;;;;;;;;;;;;;;;;;;6231930;28;19913;-79
2023/01/21 17:54:20;;;;;;;;;;;;;;;;;;6237424;28;19917;-79
2023/01/21 17:57:20;;;;;;;;;;;;;;;;;;6234151;28;19952;-79
2023/01/21 18:00:20;;;;;;;;;;;;;;;;;;6241580;28;19984;-79
2023/01/21 18:03:21;;;;;;;;;;;;;;;;;;6230273;28;19954;-79
2023/01/21 18:06:21;;;;;;;;;;;;;;;;;;6236399;28;19971;-79
2023/01/21 18:09:21;;;;;;;;;;;;;;;;;;6236050;28;19913;-79
2023/01/21 18:12:21;;;;;;;;;;;;;;;;;;6234956;28;19955;-79
2023/01/21 18:15:21;;;;;;;;;;;;;;;;;;6231348;28;19906;-79
2023/01/21 18:18:21;;;;;;;;;;;;;;;;;;6247778;28;19905;-79
2023/01/21 18:21:21;;;;;;;;;;;;;;;;;;6247534;28;19905;-79
2023/01/21 18:24:21;;;;;;;;;;;;;;;;;;6246757;28;19909;-79
2023/01/21 18:27:22;;;;;;;;;;;;;;;;;;6234270;28;19909;-79
2023/01/21 18:30:23;;;;;;;;;;;;;;;;;;6239399;28;19911;-79
2023/01/21 18:33:23;;;;;;;;;;;;;;;;;;6238879;28;19913;-79
2023/01/21 18:36:23;;;;;;;;;;;;;;;;;;6224607;28;19999;-79
2023/01/21 18:39:23;;;;;;;;;;;;;;;;;;6226204;28;19915;-79
2023/01/21 18:42:23;;;;;;;;;;;;;;;;;;6238874;28;19928;-80
2023/01/21 18:45:23;;;;;;;;;;;;;;;;;;6234989;28;19913;-80
2023/01/21 18:48:23;;;;;;;;;;;;;;;;;;6236436;28;19948;-80
2023/01/21 18:51:25;;;;;;;;;;;;;;;;;;6230638;28;19913;-79
2023/01/21 18:54:25;;;;;;;;;;;;;;;;;;6225217;28;19989;-79
2023/01/21 18:57:25;;;;;;;;;;;;;;;;;;6231567;28;19916;-79
2023/01/21 19:00:25;;;;;;;;;;;;;;;;;;6223608;28;20360;-79
2023/01/21 19:03:25;;;;;;;;;;;;;;;;;;6220794;28;19911;-79
2023/01/21 19:06:25;;;;;;;;;;;;;;;;;;6224462;28;19909;-79
2023/01/21 19:09:25;;;;;;;;;;;;;;;;;;6233687;28;19913;-79
2023/01/21 19:12:26;;;;;;;;;;;;;;;;;;6231081;28;19905;-79
2023/01/21 19:15:26;;;;;;;;;;;;;;;;;;6242393;28;19936;-79
2023/01/21 19:18:26;;;;;;;;;;;;;;;;;;6229509;28;19941;-79
2023/01/21 19:21:26;;;;;;;;;;;;;;;;;;6230097;28;19912;-79
2023/01/21 19:24:26;;;;;;;;;;;;;;;;;;6230212;28;19911;-79
2023/01/21 19:27:26;;;;;;;;;;;;;;;;;;6227374;28;19916;-79
2023/01/21 19:30:26;;;;;;;;;;;;;;;;;;6227497;28;19909;-80
2023/01/21 19:33:26;;;;;;;;;;;;;;;;;;6226732;28;19920;-80
2023/01/21 19:36:26;;;;;;;;;;;;;;;;;;6223667;28;20072;-80
2023/01/21 19:39:31;;;;;;;;;;;;;;;;;;6235687;28;20035;-80
2023/01/21 19:42:31;;;;;;;;;;;;;;;;;;6235771;28;20435;-80
2023/01/21 19:45:31;;;;;;;;;;;;;;;;;;6230807;28;20357;-80
2023/01/21 19:48:31;;;;;;;;;;;;;;;;;;6225200;28;19909;-80
2023/01/21 19:51:31;;;;;;;;;;;;;;;;;;6223880;28;19913;-80
2023/01/21 19:54:32;;;;;;;;;;;;;;;;;;6225697;28;19912;-80
2023/01/21 19:57:32;;;;;;;;;;;;;;;;;;6239063;28;20265;-80
2023/01/21 20:00:32;;;;;;;;;;;;;;;;;;6218204;28;19896;-80
2023/01/21 20:03:32;;;;;;;;;;;;;;;;;;6224156;28;19966;-80
2023/01/21 20:06:32;;;;;;;;;;;;;;;;;;6239045;28;19917;-80
2023/01/21 20:09:32;;;;;;;;;;;;;;;;;;6231623;28;19920;-80
2023/01/21 20:12:32;;;;;;;;;;;;;;;;;;6222993;28;20382;-80
2023/01/21 20:15:36;;;;;;;;;;;;;;;;;;6223798;28;19996;-80
2023/01/21 20:18:36;;;;;;;;;;;;;;;;;;6224752;28;20365;-80
2023/01/21 20:21:39;;;;;;;;;;;;;;;;;;6238125;28;19916;-80
2023/01/21 20:24:39;;;;;;;;;;;;;;;;;;6230316;28;19915;-80
2023/01/21 20:27:39;;;;;;;;;;;;;;;;;;6228489;28;19909;-80
2023/01/21 20:30:39;;;;;;;;;;;;;;;;;;6228781;28;19909;-80
2023/01/21 20:33:39;;;;;;;;;;;;;;;;;;6224833;28;20011;-80